Time;durP1;ratioP1;P1;durP2;ratioP2;P2;SDS_P1;SDS_P2;PMS_P1;PMS_P2;Temp;Humidity;BMP_temperature;BMP_pressure;BME280_temperature;BME280_humidity;BME280_pressure;Samples;Min_cycle;Max_cycle;Signal;HPM_P1;HPM_P2
2023/07/26 00:00:54;;;;;;;;;9.33;6.67;;;;;;;;4991355;28;45196;-82
2023/07/26 00:03:19;;;;;;;;;9.33;8.33;;;;;;;;5004068;28;45235;-82
2023/07/26 00:05:45;;;;;;;;;6.00;5.00;;;;;;;;5010787;28;45563;-82
2023/07/26 00:08:10;;;;;;;;;17.00;13.67;;;;;;;;5006751;28;45796;-84
2023/07/26 00:10:37;;;;;;;;;5.00;5.00;;;;;;;;5002567;28;45425;-80
2023/07/26 00:13:03;;;;;;;;;8.00;8.00;;;;;;;;4999039;28;45495;-79
2023/07/26 00:15:28;;;;;;;;;7.33;5.33;;;;;;;;5003644;28;45631;-83
2023/07/26 00:17:53;;;;;;;;;5.67;5.00;;;;;;;;4984606;28;45776;-83
2023/07/26 00:20:19;;;;;;;;;15.00;11.33;;;;;;;;4984874;28;45512;-85
2023/07/26 00:22:44;;;;;;;;;6.67;6.00;;;;;;;;5002460;28;45748;-83
2023/07/26 00:25:09;;;;;;;;;6.67;5.67;;;;;;;;5000602;28;46031;-82
2023/07/26 00:27:35;;;;;;;;;16.67;13.67;;;;;;;;4984655;28;45416;-84
2023/07/26 00:30:00;;;;;;;;;15.67;9.33;;;;;;;;4981299;28;45489;-82
2023/07/26 00:32:25;;;;;;;;;5.67;5.67;;;;;;;;4998474;28;45661;-82
2023/07/26 00:34:51;;;;;;;;;4.00;3.00;;;;;;;;4977562;28;45397;-82
2023/07/26 00:37:16;;;;;;;;;7.33;5.33;;;;;;;;4983851;28;45434;-83
2023/07/26 00:39:43;;;;;;;;;6.00;5.00;;;;;;;;4983882;28;45375;-81
2023/07/26 00:42:09;;;;;;;;;5.67;4.67;;;;;;;;4983440;28;45403;-83
2023/07/26 00:44:34;;;;;;;;;6.33;6.33;;;;;;;;4999070;28;46901;-80
2023/07/26 00:46:59;;;;;;;;;5.00;4.67;;;;;;;;5001857;28;45739;-81
2023/07/26 00:49:25;;;;;;;;;3.67;3.33;;;;;;;;4978531;28;45730;-83
2023/07/26 00:51:50;;;;;;;;;4.33;4.33;;;;;;;;4974574;28;46924;-78
2023/07/26 00:54:18;;;;;;;;;4.00;4.00;;;;;;;;4977844;28;46572;-79
2023/07/26 00:56:43;;;;;;;;;1.00;1.00;;;;;;;;4996687;28;45899;-80
2023/07/26 00:59:09;;;;;;;;;6.67;4.33;;;;;;;;5000396;28;45437;-81
2023/07/26 01:01:35;;;;;;;;;4.33;4.33;;;;;;;;4982474;28;46973;-81
2023/07/26 01:04:01;;;;;;;;;5.00;5.00;;;;;;;;4981230;28;48063;-81
2023/07/26 01:06:29;;;;;;;;;5.00;5.00;;;;;;;;4980135;28;45740;-78
2023/07/26 01:09:04;;;;;;;;;2.00;2.00;;;;;;;;4996728;28;45420;-79
2023/07/26 01:11:29;;;;;;;;;9.33;6.00;;;;;;;;4998644;28;45499;-79
2023/07/26 01:14:01;;;;;;;;;7.67;6.00;;;;;;;;4981499;28;47487;-80
2023/07/26 01:16:27;;;;;;;;;4.00;4.00;;;;;;;;5001818;28;45466;-80
2023/07/26 01:18:53;;;;;;;;;6.33;4.00;;;;;;;;5004889;28;45394;-79
2023/07/26 01:21:18;;;;;;;;;5.00;3.67;;;;;;;;4998406;28;45727;-81
2023/07/26 01:23:43;;;;;;;;;4.00;4.00;;;;;;;;5001110;28;45531;-80
2023/07/26 01:26:09;;;;;;;;;7.67;5.00;;;;;;;;4996538;28;45634;-78
2023/07/26 01:28:34;;;;;;;;;4.33;4.00;;;;;;;;5004017;28;45715;-80
2023/07/26 01:31:00;;;;;;;;;6.33;4.33;;;;;;;;5001068;28;45866;-79
2023/07/26 01:33:27;;;;;;;;;6.00;3.67;;;;;;;;5001410;28;45632;-79
2023/07/26 01:35:53;;;;;;;;;8.00;6.33;;;;;;;;4980825;28;45475;-79
2023/07/26 01:38:19;;;;;;;;;5.00;5.00;;;;;;;;4979478;28;45434;-78
2023/07/26 01:40:44;;;;;;;;;5.00;5.00;;;;;;;;4995579;28;45943;-79
2023/07/26 01:43:10;;;;;;;;;8.33;7.33;;;;;;;;5008705;28;47087;-79
2023/07/26 01:45:35;;;;;;;;;8.67;5.33;;;;;;;;4991224;28;46148;-79
2023/07/26 01:48:00;;;;;;;;;7.00;5.67;;;;;;;;4994201;28;45497;-79
2023/07/26 01:50:26;;;;;;;;;4.67;4.33;;;;;;;;4967986;28;45882;-79
2023/07/26 01:52:51;;;;;;;;;7.33;3.33;;;;;;;;4972888;28;46889;-78
2023/07/26 01:55:16;;;;;;;;;2.00;2.00;;;;;;;;4980492;28;45412;-78
2023/07/26 01:57:41;;;;;;;;;3.00;3.00;;;;;;;;4977468;28;45350;-79
2023/07/26 02:00:07;;;;;;;;;4.67;4.67;;;;;;;;5004130;28;45771;-79
2023/07/26 02:02:33;;;;;;;;;5.33;4.00;;;;;;;;4996976;28;46422;-78
2023/07/26 02:04:58;;;;;;;;;6.00;6.00;;;;;;;;4997115;28;45333;-78
2023/07/26 02:07:23;;;;;;;;;5.00;5.00;;;;;;;;4980203;28;45881;-77
2023/07/26 02:09:48;;;;;;;;;4.33;3.00;;;;;;;;4979294;28;47121;-77
2023/07/26 02:12:14;;;;;;;;;4.67;4.00;;;;;;;;4999522;28;45709;-82
2023/07/26 02:14:39;;;;;;;;;4.00;4.00;;;;;;;;4987120;28;45526;-82
2023/07/26 02:17:04;;;;;;;;;4.33;4.00;;;;;;;;5004916;28;45455;-82
2023/07/26 02:19:30;;;;;;;;;4.00;4.00;;;;;;;;4984954;28;46011;-81
2023/07/26 02:21:55;;;;;;;;;5.67;4.00;;;;;;;;5001869;28;45296;-80
2023/07/26 02:24:21;;;;;;;;;4.00;3.00;;;;;;;;5006019;28;45481;-82
2023/07/26 02:26:46;;;;;;;;;3.00;3.00;;;;;;;;4990812;28;45444;-83
2023/07/26 02:29:11;;;;;;;;;4.67;4.67;;;;;;;;4989817;28;46781;-82
2023/07/26 02:31:37;;;;;;;;;4.00;4.00;;;;;;;;4981764;28;46823;-82
2023/07/26 02:34:02;;;;;;;;;4.00;4.00;;;;;;;;5011177;28;45115;-80
2023/07/26 02:36:27;;;;;;;;;2.00;2.00;;;;;;;;4986207;28;45336;-81
2023/07/26 02:38:52;;;;;;;;;2.00;2.00;;;;;;;;4981891;28;46759;-82
2023/07/26 02:41:18;;;;;;;;;5.33;3.67;;;;;;;;4983758;28;46880;-82
2023/07/26 02:43:43;;;;;;;;;3.00;2.00;;;;;;;;4983644;28;45449;-81
2023/07/26 02:46:08;;;;;;;;;4.67;3.67;;;;;;;;4983692;28;45487;-82
2023/07/26 02:48:33;;;;;;;;;4.33;3.00;;;;;;;;5001857;28;45360;-80
2023/07/26 02:50:59;;;;;;;;;8.33;4.00;;;;;;;;5009892;28;45374;-82
2023/07/26 02:53:24;;;;;;;;;5.67;4.00;;;;;;;;4994025;28;45475;-80
2023/07/26 02:55:49;;;;;;;;;4.33;3.00;;;;;;;;4984595;28;44941;-81
2023/07/26 02:58:15;;;;;;;;;4.33;4.33;;;;;;;;4998742;28;45711;-82
2023/07/26 03:00:40;;;;;;;;;3.33;3.33;;;;;;;;4981901;28;47165;-81
2023/07/26 03:03:05;;;;;;;;;4.33;4.33;;;;;;;;4982806;28;45841;-82
2023/07/26 03:05:31;;;;;;;;;3.33;3.33;;;;;;;;4998656;28;45314;-81
2023/07/26 03:07:56;;;;;;;;;3.00;3.00;;;;;;;;4991825;28;45848;-84
2023/07/26 03:10:21;;;;;;;;;4.67;3.33;;;;;;;;4992369;28;45611;-82
2023/07/26 03:12:47;;;;;;;;;4.67;4.67;;;;;;;;5000779;28;45854;-82
2023/07/26 03:15:12;;;;;;;;;6.33;4.33;;;;;;;;5001465;28;45822;-81
2023/07/26 03:17:37;;;;;;;;;5.00;4.00;;;;;;;;4980575;28;46090;-83
2023/07/26 03:20:03;;;;;;;;;8.33;4.00;;;;;;;;4971779;28;47151;-83
2023/07/26 03:22:28;;;;;;;;;5.00;5.00;;;;;;;;4993412;28;45538;-81
2023/07/26 03:24:53;;;;;;;;;5.33;5.33;;;;;;;;4984416;28;45617;-81
2023/07/26 03:27:19;;;;;;;;;5.33;4.00;;;;;;;;5001836;28;45718;-81
2023/07/26 03:29:44;;;;;;;;;4.00;3.00;;;;;;;;5008986;28;45630;-81
2023/07/26 03:32:09;;;;;;;;;4.00;4.00;;;;;;;;4979709;28;45445;-82
2023/07/26 03:34:34;;;;;;;;;4.00;4.00;;;;;;;;5001240;28;45453;-83
2023/07/26 03:37:00;;;;;;;;;3.00;3.00;;;;;;;;5002546;28;45477;-82
2023/07/26 03:39:26;;;;;;;;;4.00;3.00;;;;;;;;4991003;28;45484;-80
2023/07/26 03:41:51;;;;;;;;;4.00;4.00;;;;;;;;5007259;28;45904;-81
2023/07/26 03:44:17;;;;;;;;;3.00;3.00;;;;;;;;4986466;28;45763;-81
2023/07/26 03:46:42;;;;;;;;;5.00;4.00;;;;;;;;5002150;28;45800;-82
2023/07/26 03:49:07;;;;;;;;;8.33;4.00;;;;;;;;4984957;28;46977;-80
2023/07/26 03:51:32;;;;;;;;;4.00;4.00;;;;;;;;5001263;28;45569;-79
2023/07/26 03:53:58;;;;;;;;;3.00;3.00;;;;;;;;5002943;28;45482;-81
2023/07/26 03:56:23;;;;;;;;;6.67;4.67;;;;;;;;4985853;28;45599;-81
2023/07/26 03:58:54;;;;;;;;;5.00;5.00;;;;;;;;4986587;28;45539;-82
2023/07/26 04:01:21;;;;;;;;;5.33;5.00;;;;;;;;5009079;28;45685;-80
2023/07/26 04:03:50;;;;;;;;;6.00;4.33;;;;;;;;5001909;28;45712;-79
2023/07/26 04:06:18;;;;;;;;;4.00;4.00;;;;;;;;4998680;28;45404;-81
2023/07/26 04:08:46;;;;;;;;;7.00;5.33;;;;;;;;4982255;28;47943;-81
2023/07/26 04:11:13;;;;;;;;;7.67;5.00;;;;;;;;4987501;28;45448;-80
2023/07/26 04:13:51;;;;;;;;;3.33;3.33;;;;;;;;4998421;28;45475;-79
2023/07/26 04:16:17;;;;;;;;;3.33;3.33;;;;;;;;4994905;28;45680;-78
2023/07/26 04:18:43;;;;;;;;;4.67;4.67;;;;;;;;5011394;28;46732;-78
2023/07/26 04:21:17;;;;;;;;;6.67;4.00;;;;;;;;5002350;28;45588;-77
2023/07/26 04:23:43;;;;;;;;;4.67;4.67;;;;;;;;4997008;28;45475;-78
2023/07/26 04:26:08;;;;;;;;;6.33;5.00;;;;;;;;5005013;28;45666;-78
2023/07/26 04:28:34;;;;;;;;;5.00;4.00;;;;;;;;5000483;28;45536;-80
2023/07/26 04:30:59;;;;;;;;;5.67;4.67;;;;;;;;4979894;28;45441;-80
2023/07/26 04:33:24;;;;;;;;;4.00;4.00;;;;;;;;4987962;28;45447;-79
2023/07/26 04:35:51;;;;;;;;;5.33;5.33;;;;;;;;5001873;28;45984;-78
2023/07/26 04:38:16;;;;;;;;;4.67;4.67;;;;;;;;4981918;28;46267;-79
2023/07/26 04:40:42;;;;;;;;;8.33;5.00;;;;;;;;4999815;28;45267;-77
2023/07/26 04:43:07;;;;;;;;;5.00;4.00;;;;;;;;4996085;28;45870;-78
2023/07/26 04:45:32;;;;;;;;;9.33;9.33;;;;;;;;4978308;28;46045;-75
2023/07/26 04:47:57;;;;;;;;;6.00;5.00;;;;;;;;4995616;28;46162;-76
2023/07/26 04:50:22;;;;;;;;;26.33;22.00;;;;;;;;4994332;28;45434;-78
2023/07/26 04:52:48;;;;;;;;;13.67;12.67;;;;;;;;4996199;28;45780;-77
2023/07/26 04:55:13;;;;;;;;;13.00;10.67;;;;;;;;4989437;28;46095;-75
2023/07/26 04:57:39;;;;;;;;;9.67;8.67;;;;;;;;4995441;28;45389;-76
2023/07/26 05:00:05;;;;;;;;;13.67;10.67;;;;;;;;4982022;28;46038;-77
2023/07/26 05:02:33;;;;;;;;;14.00;10.33;;;;;;;;4980450;28;45468;-76
2023/07/26 05:04:58;;;;;;;;;10.00;8.33;;;;;;;;4966793;28;45645;-76
2023/07/26 05:07:24;;;;;;;;;14.67;12.33;;;;;;;;4973941;28;45730;-76
2023/07/26 05:09:49;;;;;;;;;13.67;12.33;;;;;;;;4959600;28;45475;-77
2023/07/26 05:12:14;;;;;;;;;9.33;9.33;;;;;;;;4974927;28;45956;-76
2023/07/26 05:14:41;;;;;;;;;8.33;8.00;;;;;;;;4961530;28;46978;-78
2023/07/26 05:17:06;;;;;;;;;9.00;9.00;;;;;;;;4979188;28;45772;-77
2023/07/26 05:19:31;;;;;;;;;14.67;11.33;;;;;;;;4982813;28;45497;-77
2023/07/26 05:21:57;;;;;;;;;9.33;8.33;;;;;;;;4982814;28;45380;-78
2023/07/26 05:24:22;;;;;;;;;8.33;5.33;;;;;;;;4958713;28;45426;-78
2023/07/26 05:26:47;;;;;;;;;9.00;6.00;;;;;;;;4958787;28;46379;-77
2023/07/26 05:29:12;;;;;;;;;4.00;4.00;;;;;;;;4964390;28;45833;-78
2023/07/26 05:31:38;;;;;;;;;5.67;5.67;;;;;;;;4977252;28;46006;-77
2023/07/26 05:34:03;;;;;;;;;7.00;5.00;;;;;;;;4959126;28;45417;-76
2023/07/26 05:36:31;;;;;;;;;6.67;6.00;;;;;;;;4977696;28;46217;-76
2023/07/26 05:38:56;;;;;;;;;5.00;5.00;;;;;;;;4975891;28;45476;-76
2023/07/26 05:41:22;;;;;;;;;5.00;5.00;;;;;;;;4977634;28;45642;-77
2023/07/26 05:43:47;;;;;;;;;6.00;4.75;;;;;;;;4977624;28;45346;-75
2023/07/26 05:46:12;;;;;;;;;7.75;7.00;;;;;;;;4980067;28;46173;-78
2023/07/26 05:48:38;;;;;;;;;6.50;5.00;;;;;;;;4966432;28;45520;-78
2023/07/26 05:51:04;;;;;;;;;6.50;5.00;;;;;;;;4977735;28;45479;-78
2023/07/26 05:53:29;;;;;;;;;8.75;5.50;;;;;;;;4959215;28;46380;-80
2023/07/26 05:55:54;;;;;;;;;3.25;3.25;;;;;;;;4961346;28;46207;-78
2023/07/26 05:58:19;;;;;;;;;3.50;3.50;;;;;;;;4978093;28;45787;-78
2023/07/26 06:00:45;;;;;;;;;5.00;3.75;;;;;;;;4971213;28;45545;-77
2023/07/26 06:03:13;;;;;;;;;5.25;3.00;;;;;;;;4975333;28;45437;-79
2023/07/26 06:05:40;;;;;;;;;4.75;3.25;;;;;;;;4990757;28;46659;-77
2023/07/26 06:08:05;;;;;;;;;8.00;5.75;;;;;;;;4986193;28;45478;-77
2023/07/26 06:10:30;;;;;;;;;4.25;4.00;;;;;;;;4992295;28;45946;-78
2023/07/26 06:12:56;;;;;;;;;4.25;4.25;;;;;;;;4977742;28;46032;-79
2023/07/26 06:15:21;;;;;;;;;3.25;3.25;;;;;;;;4991778;28;45713;-78
2023/07/26 06:17:46;;;;;;;;;5.00;5.00;;;;;;;;4990049;28;46231;-80
2023/07/26 06:20:14;;;;;;;;;6.00;4.50;;;;;;;;4979966;28;45964;-88
2023/07/26 06:32:12;;;;;;;;;4.50;4.50;;;;;;;;4920885;28;44802;-81
2023/07/26 06:34:37;;;;;;;;;6.75;4.25;;;;;;;;4933120;28;45266;-81
2023/07/26 06:40:35;;;;;;;;;;;;;;;;;;;;;
2023/07/26 06:46:34;;;;;;;;;5.50;5.00;;;;;;;;4912481;28;45776;-87
2023/07/26 06:52:09;;;;;;;;;7.25;4.75;;;;;;;;4930006;28;45474;-91
2023/07/26 06:54:54;;;;;;;;;5.25;4.25;;;;;;;;4945471;28;45839;-87
2023/07/26 06:57:29;;;;;;;;;6.25;5.25;;;;;;;;4946058;28;45546;-90
2023/07/26 07:00:12;;;;;;;;;4.75;2.75;;;;;;;;4931471;28;47935;-88
2023/07/26 07:02:46;;;;;;;;;6.00;5.75;;;;;;;;4935662;28;45325;-89
2023/07/26 07:05:25;;;;;;;;;5.75;5.00;;;;;;;;4940428;28;45922;-91
2023/07/26 07:08:15;;;;;;;;;5.25;5.00;;;;;;;;4959533;28;45955;-92
2023/07/26 07:10:49;;;;;;;;;4.75;4.75;;;;;;;;4949030;28;45664;-88
2023/07/26 07:13:16;;;;;;;;;5.75;4.50;;;;;;;;4985194;28;45917;-86
2023/07/26 07:15:43;;;;;;;;;4.25;4.25;;;;;;;;5007329;28;45800;-86
2023/07/26 07:18:08;;;;;;;;;4.00;4.00;;;;;;;;4989398;28;45995;-87
2023/07/26 07:20:45;;;;;;;;;5.00;3.75;;;;;;;;4988984;28;47320;-89
2023/07/26 07:23:10;;;;;;;;;4.75;4.75;;;;;;;;4975487;28;45414;-83
2023/07/26 07:25:39;;;;;;;;;4.00;2.75;;;;;;;;4988162;28;45498;-86
2023/07/26 07:28:04;;;;;;;;;6.25;3.50;;;;;;;;4988348;28;46143;-87
2023/07/26 07:30:31;;;;;;;;;6.25;4.00;;;;;;;;4975673;28;47174;-88
2023/07/26 07:32:56;;;;;;;;;4.25;4.25;;;;;;;;4981626;28;46477;-82
2023/07/26 07:35:22;;;;;;;;;6.00;3.25;;;;;;;;4993507;28;45434;-83
2023/07/26 07:37:47;;;;;;;;;5.25;4.00;;;;;;;;4978302;28;45865;-81
2023/07/26 07:40:12;;;;;;;;;5.75;5.75;;;;;;;;4996640;28;45673;-82
2023/07/26 07:42:38;;;;;;;;;4.50;3.00;;;;;;;;4983417;28;45412;-82
2023/07/26 07:45:04;;;;;;;;;5.25;4.25;;;;;;;;4987584;28;45475;-83
2023/07/26 07:47:30;;;;;;;;;2.25;2.25;;;;;;;;4986395;28;46054;-81
2023/07/26 07:49:55;;;;;;;;;3.00;3.00;;;;;;;;4985680;28;47247;-82
2023/07/26 07:52:21;;;;;;;;;4.00;4.00;;;;;;;;5005125;28;45479;-83
2023/07/26 07:54:47;;;;;;;;;4.75;3.75;;;;;;;;4996575;28;44826;-80
2023/07/26 07:57:12;;;;;;;;;2.50;2.50;;;;;;;;4989279;28;45380;-83
2023/07/26 07:59:37;;;;;;;;;2.50;1.25;;;;;;;;4983201;28;47118;-83
2023/07/26 08:02:04;;;;;;;;;4.75;2.00;;;;;;;;5001487;28;45424;-83
2023/07/26 08:04:29;;;;;;;;;3.50;3.50;;;;;;;;4985304;28;45670;-79
2023/07/26 08:06:55;;;;;;;;;3.00;3.00;;;;;;;;4990861;28;45636;-82
2023/07/26 08:09:20;;;;;;;;;2.00;2.00;;;;;;;;5000737;28;45758;-84
2023/07/26 08:11:45;;;;;;;;;3.75;2.00;;;;;;;;4993096;28;45610;-83
2023/07/26 08:14:10;;;;;;;;;5.00;5.00;;;;;;;;4989027;28;45466;-82
2023/07/26 08:16:36;;;;;;;;;6.00;3.00;;;;;;;;4984784;28;46021;-85
2023/07/26 08:19:03;;;;;;;;;3.25;3.00;;;;;;;;4986839;28;47206;-83
2023/07/26 08:21:28;;;;;;;;;3.00;2.00;;;;;;;;5002192;28;45101;-85
2023/07/26 08:23:53;;;;;;;;;1.50;1.25;;;;;;;;4981445;28;45579;-84
2023/07/26 08:26:19;;;;;;;;;4.50;3.00;;;;;;;;4988698;28;46878;-84
2023/07/26 08:28:44;;;;;;;;;5.00;5.00;;;;;;;;4981756;28;46507;-82
2023/07/26 08:31:09;;;;;;;;;6.50;4.75;;;;;;;;4983569;28;45812;-85
2023/07/26 08:33:34;;;;;;;;;15.67;14.00;;;;;;;;4983638;28;45559;-81
2023/07/26 08:36:00;;;;;;;;;3.00;2.00;;;;;;;;4997484;28;45497;-83
2023/07/26 08:38:27;;;;;;;;;11.00;8.50;;;;;;;;4986053;28;47981;-82
2023/07/26 08:40:53;;;;;;;;;6.25;5.25;;;;;;;;4976021;28;45350;-85
2023/07/26 08:43:20;;;;;;;;;4.75;3.25;;;;;;;;4976591;28;45413;-84
2023/07/26 08:45:45;;;;;;;;;4.50;4.25;;;;;;;;4982034;28;46043;-84
2023/07/26 08:48:11;;;;;;;;;2.25;2.25;;;;;;;;4993787;28;46111;-85
2023/07/26 08:50:42;;;;;;;;;2.00;2.00;;;;;;;;4983077;28;45363;-81
2023/07/26 08:53:23;;;;;;;;;2.50;1.00;;;;;;;;5000364;28;45739;-83
2023/07/26 08:55:49;;;;;;;;;4.00;3.00;;;;;;;;4989039;28;45569;-84
2023/07/26 08:58:14;;;;;;;;;1.00;1.00;;;;;;;;4984518;28;46961;-83
2023/07/26 09:00:40;;;;;;;;;3.00;3.00;;;;;;;;5002365;28;45923;-81
2023/07/26 09:03:06;;;;;;;;;4.75;1.75;;;;;;;;4990359;28;45550;-80
2023/07/26 09:05:32;;;;;;;;;7.75;4.00;;;;;;;;4995305;28;45185;-84
2023/07/26 09:07:58;;;;;;;;;7.75;7.75;;;;;;;;5005146;28;45397;-83
2023/07/26 09:10:32;;;;;;;;;16.67;14.00;;;;;;;;5001878;28;45011;-84
2023/07/26 09:13:11;;;;;;;;;2.25;1.00;;;;;;;;4983353;28;45380;-84
2023/07/26 09:15:37;;;;;;;;;4.25;4.00;;;;;;;;4977988;28;45726;-83
2023/07/26 09:18:04;;;;;;;;;3.50;3.50;;;;;;;;4977971;28;47011;-81
2023/07/26 09:20:30;;;;;;;;;3.25;3.25;;;;;;;;4992525;28;45533;-81
2023/07/26 09:23:03;;;;;;;;;9.25;7.75;;;;;;;;4971187;28;45936;-83
2023/07/26 09:25:39;;;;;;;;;5.00;2.25;;;;;;;;4994647;28;45911;-85
2023/07/26 09:28:05;;;;;;;;;1.25;1.25;;;;;;;;4961861;28;46589;-84
2023/07/26 09:30:38;;;;;;;;;2.00;1.50;;;;;;;;4975008;28;45680;-81
2023/07/26 09:33:05;;;;;;;;;2.25;2.25;;;;;;;;4994266;28;45845;-83
2023/07/26 09:35:36;;;;;;;;;2.75;2.00;;;;;;;;4996972;28;46012;-84
2023/07/26 09:38:12;;;;;;;;;1.25;1.25;;;;;;;;5002931;28;45558;-83
2023/07/26 09:40:37;;;;;;;;;1.50;1.50;;;;;;;;4982447;28;46454;-83
2023/07/26 09:43:03;;;;;;;;;1.00;1.00;;;;;;;;4973171;28;45782;-84
2023/07/26 09:45:31;;;;;;;;;2.00;2.00;;;;;;;;4989301;28;45478;-82
2023/07/26 09:48:03;;;;;;;;;2.25;2.25;;;;;;;;4983844;28;45551;-83
2023/07/26 09:50:29;;;;;;;;;2.25;1.25;;;;;;;;4990056;28;45770;-82
2023/07/26 09:53:02;;;;;;;;;2.00;2.00;;;;;;;;4972478;28;45425;-82
2023/07/26 09:55:29;;;;;;;;;4.00;2.25;;;;;;;;4990151;28;45619;-85
2023/07/26 09:57:55;;;;;;;;;2.00;2.00;;;;;;;;4974912;28;47028;-83
2023/07/26 10:00:23;;;;;;;;;1.50;1.50;;;;;;;;4992708;28;45661;-84
2023/07/26 10:03:01;;;;;;;;;2.75;1.75;;;;;;;;4978230;28;45939;-86
2023/07/26 10:05:33;;;;;;;;;1.00;1.00;;;;;;;;4966655;28;46785;-84
2023/07/26 10:07:58;;;;;;;;;3.00;3.00;;;;;;;;4956686;28;47723;-82
2023/07/26 10:10:33;;;;;;;;;0.75;0.75;;;;;;;;4963159;28;45014;-83
2023/07/26 10:13:15;;;;;;;;;3.00;1.25;;;;;;;;4968515;28;45788;-87
2023/07/26 10:15:44;;;;;;;;;1.25;1.00;;;;;;;;4959176;28;45957;-85
2023/07/26 10:18:10;;;;;;;;;0.50;0.50;;;;;;;;4954718;28;48157;-80
2023/07/26 10:20:37;;;;;;;;;1.75;1.25;;;;;;;;4948952;28;45712;-79
2023/07/26 10:23:09;;;;;;;;;1.00;1.00;;;;;;;;4968687;28;46037;-82
2023/07/26 10:25:35;;;;;;;;;1.75;1.75;;;;;;;;4961938;28;45892;-78
2023/07/26 10:28:02;;;;;;;;;1.50;1.00;;;;;;;;4966379;28;45429;-79
2023/07/26 10:30:27;;;;;;;;;2.25;1.75;;;;;;;;4966685;28;45729;-82
2023/07/26 10:32:53;;;;;;;;;2.00;2.00;;;;;;;;4955503;28;45892;-79
2023/07/26 10:35:27;;;;;;;;;2.50;2.00;;;;;;;;4954081;28;46009;-82
2023/07/26 10:37:54;;;;;;;;;1.50;1.50;;;;;;;;4976281;28;45557;-83
2023/07/26 10:40:58;;;;;;;;;2.00;1.00;;;;;;;;4982131;28;45554;-85
2023/07/26 10:43:23;;;;;;;;;0.75;0.75;;;;;;;;4932178;28;45551;-82
2023/07/26 10:45:49;;;;;;;;;3.25;2.00;;;;;;;;4971930;28;45581;-83
2023/07/26 10:48:33;;;;;;;;;1.00;1.00;;;;;;;;4967068;28;47979;-87
2023/07/26 10:50:59;;;;;;;;;1.00;1.00;;;;;;;;4964921;28;45807;-83
2023/07/26 10:53:27;;;;;;;;;1.50;1.50;;;;;;;;4979382;28;45182;-83
2023/07/26 10:56:05;;;;;;;;;1.50;1.50;;;;;;;;4958939;28;46918;-82
2023/07/26 10:58:30;;;;;;;;;1.00;1.00;;;;;;;;4970002;28;46680;-79
2023/07/26 11:00:59;;;;;;;;;0.50;0.50;;;;;;;;4952632;28;45766;-81
2023/07/26 11:03:25;;;;;;;;;1.00;1.00;;;;;;;;4959431;28;45788;-79
2023/07/26 11:05:57;;;;;;;;;1.00;1.00;;;;;;;;4976144;28;45444;-81
2023/07/26 11:08:40;;;;;;;;;0.75;0.75;;;;;;;;4983439;28;45546;-82
2023/07/26 11:11:09;;;;;;;;;1.75;1.00;;;;;;;;4972029;28;45905;-79
2023/07/26 11:13:34;;;;;;;;;0.50;0.50;;;;;;;;4980288;28;45583;-81
2023/07/26 11:16:02;;;;;;;;;2.00;2.00;;;;;;;;4980130;28;45835;-80
2023/07/26 11:18:28;;;;;;;;;1.75;1.75;;;;;;;;4974066;28;46135;-81
2023/07/26 11:20:54;;;;;;;;;3.00;1.00;;;;;;;;4977050;28;45781;-81
2023/07/26 11:23:26;;;;;;;;;1.00;1.00;;;;;;;;4965519;28;45674;-79
2023/07/26 11:25:55;;;;;;;;;1.00;1.00;;;;;;;;4986606;28;46300;-84
2023/07/26 11:28:27;;;;;;;;;1.00;1.00;;;;;;;;4986346;28;46724;-83
2023/07/26 11:30:53;;;;;;;;;0.50;0.25;;;;;;;;4988983;28;44802;-84
2023/07/26 11:33:27;;;;;;;;;0.75;0.75;;;;;;;;4980381;28;45724;-79
2023/07/26 11:35:53;;;;;;;;;2.75;2.75;;;;;;;;4974591;28;45790;-84
2023/07/26 11:38:21;;;;;;;;;2.75;1.25;;;;;;;;4984197;28;45455;-79
2023/07/26 11:40:47;;;;;;;;;1.00;1.00;;;;;;;;4978097;28;45413;-82
2023/07/26 11:43:12;;;;;;;;;1.00;0.25;;;;;;;;4981865;28;45655;-85
2023/07/26 11:45:38;;;;;;;;;0.75;0.75;;;;;;;;4987459;28;45659;-85
2023/07/26 11:48:06;;;;;;;;;1.00;1.00;;;;;;;;4977436;28;48205;-85
2023/07/26 11:50:31;;;;;;;;;2.25;1.75;;;;;;;;4985842;28;45741;-84
2023/07/26 11:53:04;;;;;;;;;1.00;1.00;;;;;;;;4983100;28;45225;-84
2023/07/26 11:55:30;;;;;;;;;1.00;1.00;;;;;;;;4969055;28;45503;-84
2023/07/26 11:58:02;;;;;;;;;0.50;0.50;;;;;;;;4976200;28;45513;-86
2023/07/26 12:00:28;;;;;;;;;1.75;1.75;;;;;;;;4976660;28;45520;-86
2023/07/26 12:02:54;;;;;;;;;1.50;1.00;;;;;;;;4974489;28;45514;-85
2023/07/26 12:05:31;;;;;;;;;1.75;1.75;;;;;;;;4996921;28;45842;-88
2023/07/26 12:08:01;;;;;;;;;1.00;1.00;;;;;;;;4974798;28;47693;-85
2023/07/26 12:10:26;;;;;;;;;0.75;0.75;;;;;;;;4981578;28;45738;-83
2023/07/26 12:12:52;;;;;;;;;2.75;2.75;;;;;;;;4992595;28;45772;-82
2023/07/26 12:15:19;;;;;;;;;2.25;2.25;;;;;;;;4986571;28;45693;-84
2023/07/26 12:17:54;;;;;;;;;1.75;1.75;;;;;;;;4977981;28;48031;-86
2023/07/26 12:20:43;;;;;;;;;3.00;1.00;;;;;;;;4983936;28;45829;-86
2023/07/26 12:23:14;;;;;;;;;2.25;1.25;;;;;;;;4989560;28;45555;-87
2023/07/26 12:25:47;;;;;;;;;2.50;1.50;;;;;;;;4973522;28;46768;-86
2023/07/26 12:28:15;;;;;;;;;0.50;0.50;;;;;;;;4973317;28;47075;-85
2023/07/26 12:30:41;;;;;;;;;0.50;0.50;;;;;;;;4994000;28;45686;-85
2023/07/26 12:33:18;;;;;;;;;2.00;1.00;;;;;;;;4988847;28;45217;-85
2023/07/26 12:35:44;;;;;;;;;3.75;1.25;;;;;;;;4982263;28;45409;-84
2023/07/26 12:38:13;;;;;;;;;2.00;2.00;;;;;;;;4980678;28;46145;-86
2023/07/26 12:40:39;;;;;;;;;3.25;2.00;;;;;;;;4995763;28;45618;-86
2023/07/26 12:43:20;;;;;;;;;1.00;1.00;;;;;;;;4977633;28;45833;-84
2023/07/26 12:45:45;;;;;;;;;1.50;0.50;;;;;;;;4987842;28;46023;-83
2023/07/26 12:48:11;;;;;;;;;3.00;2.00;;;;;;;;4968552;28;47575;-84
2023/07/26 12:50:39;;;;;;;;;3.00;3.00;;;;;;;;4974981;28;45565;-84
2023/07/26 12:53:08;;;;;;;;;2.00;2.00;;;;;;;;4989936;28;45832;-83
2023/07/26 12:55:33;;;;;;;;;1.00;1.00;;;;;;;;4979292;28;47106;-84
2023/07/26 12:57:58;;;;;;;;;1.00;1.00;;;;;;;;4974620;28;46616;-85
2023/07/26 13:00:24;;;;;;;;;4.00;1.25;;;;;;;;4992029;28;45703;-85
2023/07/26 13:02:49;;;;;;;;;4.00;2.00;;;;;;;;4990563;28;45390;-83
2023/07/26 13:05:16;;;;;;;;;3.00;1.00;;;;;;;;4975045;28;46008;-84
2023/07/26 13:07:41;;;;;;;;;2.25;1.00;;;;;;;;4976379;28;45698;-86
2023/07/26 13:10:07;;;;;;;;;2.75;2.50;;;;;;;;4975858;28;45436;-86
2023/07/26 13:12:35;;;;;;;;;1.50;1.25;;;;;;;;4980410;28;45859;-86
2023/07/26 13:15:00;;;;;;;;;2.25;2.25;;;;;;;;4985968;28;46064;-82
2023/07/26 13:17:26;;;;;;;;;4.00;4.00;;;;;;;;4988038;28;46082;-84
2023/07/26 13:19:54;;;;;;;;;2.00;2.00;;;;;;;;4984659;28;45526;-85
2023/07/26 13:22:22;;;;;;;;;2.25;1.50;;;;;;;;4978502;28;45994;-86
2023/07/26 13:24:47;;;;;;;;;1.00;1.00;;;;;;;;4975335;28;45961;-86
2023/07/26 13:27:13;;;;;;;;;2.25;2.00;;;;;;;;4975959;28;47976;-83
2023/07/26 13:29:38;;;;;;;;;1.00;1.00;;;;;;;;4973808;28;45535;-84
2023/07/26 13:32:03;;;;;;;;;2.00;2.00;;;;;;;;4985682;28;45896;-85
2023/07/26 13:34:29;;;;;;;;;4.25;3.00;;;;;;;;4990945;28;45553;-85
2023/07/26 13:36:55;;;;;;;;;3.00;1.50;;;;;;;;4970312;28;46934;-85
2023/07/26 13:39:20;;;;;;;;;1.50;1.50;;;;;;;;4993651;28;45771;-85
2023/07/26 13:41:45;;;;;;;;;2.50;2.50;;;;;;;;4974399;28;45858;-86
2023/07/26 13:44:11;;;;;;;;;2.00;2.00;;;;;;;;4972392;28;46852;-82
2023/07/26 13:46:36;;;;;;;;;3.50;2.75;;;;;;;;4989855;28;45672;-81
2023/07/26 13:49:12;;;;;;;;;4.00;2.00;;;;;;;;4990345;28;45789;-83
2023/07/26 13:51:38;;;;;;;;;2.00;2.00;;;;;;;;4993677;28;45507;-86
2023/07/26 13:54:06;;;;;;;;;2.25;1.00;;;;;;;;4994908;28;45551;-82
2023/07/26 13:56:33;;;;;;;;;1.75;1.75;;;;;;;;4984824;28;47870;-83
2023/07/26 13:58:59;;;;;;;;;2.00;1.00;;;;;;;;4973796;28;45472;-87
2023/07/26 14:01:26;;;;;;;;;1.25;1.25;;;;;;;;4972494;28;45737;-80
2023/07/26 14:03:51;;;;;;;;;1.50;1.50;;;;;;;;4968745;28;45842;-84
2023/07/26 14:06:17;;;;;;;;;3.75;2.00;;;;;;;;4983934;28;46243;-83
2023/07/26 14:08:51;;;;;;;;;3.00;2.00;;;;;;;;4993109;28;45498;-84
2023/07/26 14:11:16;;;;;;;;;1.25;1.25;;;;;;;;4976700;28;45465;-85
2023/07/26 14:13:42;;;;;;;;;1.50;1.50;;;;;;;;4994183;28;45723;-82
2023/07/26 14:16:08;;;;;;;;;1.25;0.75;;;;;;;;4988670;28;45459;-81
2023/07/26 14:18:34;;;;;;;;;5.00;4.00;;;;;;;;4971119;28;45373;-81
2023/07/26 14:20:59;;;;;;;;;5.00;4.00;;;;;;;;4971286;28;46321;-79
2023/07/26 14:23:24;;;;;;;;;3.75;2.75;;;;;;;;4975383;28;46172;-78
2023/07/26 14:25:50;;;;;;;;;1.50;1.50;;;;;;;;4978496;28;46018;-78
2023/07/26 14:28:18;;;;;;;;;5.50;4.00;;;;;;;;4979915;28;45696;-85
2023/07/26 14:30:43;;;;;;;;;1.00;1.00;;;;;;;;4959255;28;46090;-77
2023/07/26 14:33:09;;;;;;;;;2.75;2.75;;;;;;;;4971267;28;46545;-84
2023/07/26 14:35:34;;;;;;;;;1.50;1.50;;;;;;;;4987307;28;45960;-77
2023/07/26 14:37:59;;;;;;;;;1.75;1.50;;;;;;;;4965096;28;46128;-81
2023/07/26 14:40:25;;;;;;;;;3.25;2.50;;;;;;;;4980611;28;45892;-79
2023/07/26 14:42:50;;;;;;;;;2.00;2.00;;;;;;;;4977342;28;46781;-81
2023/07/26 14:45:15;;;;;;;;;1.25;1.25;;;;;;;;4986684;28;45895;-85
2023/07/26 14:47:41;;;;;;;;;1.75;1.75;;;;;;;;4977607;28;45987;-85
2023/07/26 14:50:06;;;;;;;;;3.00;2.00;;;;;;;;4975577;28;46198;-86
2023/07/26 14:52:31;;;;;;;;;0.75;0.75;;;;;;;;4981692;28;45467;-79
2023/07/26 14:54:57;;;;;;;;;3.00;3.00;;;;;;;;4985336;28;46199;-85
2023/07/26 14:57:22;;;;;;;;;1.25;1.00;;;;;;;;4980888;28;45436;-81
2023/07/26 14:59:52;;;;;;;;;5.25;3.25;;;;;;;;4985454;28;45474;-80
2023/07/26 15:02:28;;;;;;;;;3.00;0.25;;;;;;;;4984048;28;45586;-86